Time;durP1;ratioP1;P1;durP2;ratioP2;P2;SDS_P1;SDS_P2;PMS_P1;PMS_P2;Temp;Humidity;BMP_temperature;BMP_pressure;BME280_temperature;BME280_humidity;BME280_pressure;Samples;Min_cycle;Max_cycle;Signal;HPM_P1;HPM_P2
2022/01/02 00:01:00;;;;;;;12.27;5.68;;;;;;;;;;5114587;27;20636;-68
2022/01/02 00:03:29;;;;;;;9.45;4.65;;;;;;;;;;5120396;27;20066;-68
2022/01/02 00:05:56;;;;;;;12.43;5.45;;;;;;;;;;5121442;27;20092;-68
2022/01/02 00:08:23;;;;;;;11.30;5.72;;;;;;;;;;5098748;27;20416;-69
2022/01/02 00:10:52;;;;;;;14.70;5.97;;;;;;;;;;5118122;27;20498;-68
2022/01/02 00:13:33;;;;;;;12.20;5.70;;;;;;;;;;5103132;27;20503;-68
2022/01/02 00:16:08;;;;;;;8.80;5.65;;;;;;;;;;5118235;27;20040;-68
2022/01/02 00:18:37;;;;;;;10.60;5.70;;;;;;;;;;5101833;27;20097;-68
2022/01/02 00:21:07;;;;;;;11.82;5.63;;;;;;;;;;5100859;27;20047;-68
2022/01/02 00:23:48;;;;;;;11.52;5.72;;;;;;;;;;5106406;27;20046;-68
2022/01/02 00:26:17;;;;;;;10.60;5.72;;;;;;;;;;5102033;27;20070;-68
2022/01/02 00:28:43;;;;;;;9.90;5.32;;;;;;;;;;5104400;27;20047;-68
2022/01/02 00:31:09;;;;;;;12.25;6.25;;;;;;;;;;5123777;27;20049;-68
2022/01/02 00:33:36;;;;;;;13.30;6.03;;;;;;;;;;5087659;27;20509;-68
2022/01/02 00:36:04;;;;;;;16.35;6.28;;;;;;;;;;5104337;27;20048;-68
2022/01/02 00:38:30;;;;;;;14.15;6.32;;;;;;;;;;5124251;27;20721;-68
2022/01/02 00:40:57;;;;;;;12.55;6.07;;;;;;;;;;5116285;27;20054;-68
2022/01/02 00:43:32;;;;;;;10.68;5.70;;;;;;;;;;5122554;27;20046;-68
2022/01/02 00:46:00;;;;;;;11.13;5.75;;;;;;;;;;5102859;28;20041;-68
2022/01/02 00:48:28;;;;;;;8.93;5.50;;;;;;;;;;5096790;28;20488;-68
2022/01/02 00:51:01;;;;;;;15.15;5.90;;;;;;;;;;5104929;28;20066;-68
2022/01/02 00:53:32;;;;;;;15.00;6.10;;;;;;;;;;5122663;27;20062;-68
2022/01/02 00:56:00;;;;;;;10.05;6.00;;;;;;;;;;5122943;27;20504;-67
2022/01/02 00:58:31;;;;;;;15.90;6.47;;;;;;;;;;5122363;28;20023;-67
2022/01/02 01:00:58;;;;;;;12.63;6.20;;;;;;;;;;5105656;28;20565;-68
2022/01/02 01:03:26;;;;;;;11.73;5.88;;;;;;;;;;5123009;28;20114;-68
2022/01/02 01:05:53;;;;;;;10.82;5.80;;;;;;;;;;5106620;28;20050;-68
2022/01/02 01:08:20;;;;;;;13.80;5.57;;;;;;;;;;5106671;28;20390;-68
2022/01/02 01:10:46;;;;;;;13.75;5.97;;;;;;;;;;5122336;27;20039;-68
2022/01/02 01:13:12;;;;;;;11.88;6.13;;;;;;;;;;5086787;28;20035;-70
2022/01/02 01:15:38;;;;;;;13.73;6.38;;;;;;;;;;5102924;28;20631;-71
2022/01/02 01:18:05;;;;;;;16.40;6.93;;;;;;;;;;5106661;28;20068;-71
2022/01/02 01:20:32;;;;;;;12.07;6.07;;;;;;;;;;5107244;28;20039;-71
2022/01/02 01:22:59;;;;;;;16.02;6.97;;;;;;;;;;5104293;28;20042;-70
2022/01/02 01:25:25;;;;;;;16.15;6.13;;;;;;;;;;5103509;28;20035;-70
2022/01/02 01:27:52;;;;;;;13.25;6.00;;;;;;;;;;5107519;27;20491;-69
2022/01/02 01:30:20;;;;;;;14.63;6.32;;;;;;;;;;5092096;27;20075;-69
2022/01/02 01:32:47;;;;;;;13.57;6.43;;;;;;;;;;5107609;27;20045;-69
2022/01/02 01:35:13;;;;;;;14.73;6.82;;;;;;;;;;5128640;27;20061;-69
2022/01/02 01:37:40;;;;;;;15.68;7.10;;;;;;;;;;5110472;27;20038;-69
2022/01/02 01:40:07;;;;;;;14.45;6.70;;;;;;;;;;5107937;27;20054;-70
2022/01/02 01:47:44;;;;;;;16.52;6.72;;;;;;;;;;5104617;27;20043;-69
2022/01/02 01:50:10;;;;;;;18.05;6.45;;;;;;;;;;5103763;27;20043;-69
2022/01/02 01:52:36;;;;;;;17.48;6.63;;;;;;;;;;5125705;27;20089;-68
2022/01/02 01:55:03;;;;;;;15.48;6.55;;;;;;;;;;5106809;27;20129;-68
2022/01/02 01:57:29;;;;;;;12.77;6.88;;;;;;;;;;5108730;27;20043;-68
2022/01/02 01:59:55;;;;;;;21.42;6.70;;;;;;;;;;5109260;27;20376;-68
2022/01/02 02:02:22;;;;;;;16.08;6.82;;;;;;;;;;5107869;27;20096;-68
2022/01/02 02:04:48;;;;;;;17.27;6.43;;;;;;;;;;5109123;27;20048;-68
2022/01/02 02:07:15;;;;;;;16.17;6.85;;;;;;;;;;5108321;27;20031;-68
2022/01/02 02:12:27;;;;;;;16.02;6.63;;;;;;;;;;5127161;27;20045;-68
2022/01/02 02:14:53;;;;;;;14.65;6.55;;;;;;;;;;5125701;27;20523;-68
2022/01/02 02:17:19;;;;;;;18.92;6.57;;;;;;;;;;5106341;27;20051;-68
2022/01/02 02:19:46;;;;;;;12.93;6.57;;;;;;;;;;5104767;27;20078;-68
2022/01/02 02:22:12;;;;;;;13.82;7.05;;;;;;;;;;5107929;27;20476;-68
2022/01/02 02:24:40;;;;;;;14.98;6.55;;;;;;;;;;5107249;27;20039;-68
2022/01/02 02:27:06;;;;;;;18.25;7.10;;;;;;;;;;5106196;27;20483;-68
2022/01/02 02:29:32;;;;;;;18.60;7.68;;;;;;;;;;5125630;27;20046;-68
2022/01/02 02:31:58;;;;;;;11.88;6.00;;;;;;;;;;5104847;27;20043;-68
2022/01/02 02:34:25;;;;;;;16.73;6.75;;;;;;;;;;5090983;27;20444;-68
2022/01/02 02:36:51;;;;;;;17.40;6.60;;;;;;;;;;5122731;27;20700;-68
2022/01/02 02:39:17;;;;;;;17.48;7.10;;;;;;;;;;5105002;27;20549;-68
2022/01/02 02:41:44;;;;;;;15.43;6.63;;;;;;;;;;5089025;27;20043;-68
2022/01/02 02:44:32;;;;;;;10.57;6.32;;;;;;;;;;5108368;27;20525;-68
2022/01/02 02:49:43;;;;;;;15.85;6.38;;;;;;;;;;5104855;27;20050;-68
2022/01/02 02:52:20;;;;;;;13.77;5.88;;;;;;;;;;5123699;27;20047;-68
2022/01/02 02:54:47;;;;;;;14.52;6.85;;;;;;;;;;5105845;27;20524;-68
2022/01/02 02:57:14;;;;;;;15.23;6.82;;;;;;;;;;5123292;27;20465;-68
2022/01/02 02:59:40;;;;;;;14.70;5.95;;;;;;;;;;5124217;27;20116;-68
2022/01/02 03:02:07;;;;;;;13.30;6.13;;;;;;;;;;5097778;27;20047;-68
2022/01/02 03:04:33;;;;;;;17.20;6.93;;;;;;;;;;5124627;27;20036;-68
2022/01/02 03:06:59;;;;;;;11.88;5.85;;;;;;;;;;5106510;27;20034;-67
2022/01/02 03:09:48;;;;;;;18.05;6.15;;;;;;;;;;5117732;27;20069;-68
2022/01/02 03:12:14;;;;;;;13.30;6.07;;;;;;;;;;5118044;27;20048;-68
2022/01/02 03:14:40;;;;;;;18.20;6.03;;;;;;;;;;5107550;27;20031;-68
2022/01/02 03:17:06;;;;;;;17.52;6.93;;;;;;;;;;5105844;27;20126;-68
2022/01/02 03:19:33;;;;;;;15.40;6.30;;;;;;;;;;5105373;27;20035;-68
2022/01/02 03:21:59;;;;;;;15.93;6.25;;;;;;;;;;5106277;27;20177;-68
2022/01/02 03:24:25;;;;;;;20.35;6.20;;;;;;;;;;5104983;27;20047;-68
2022/01/02 03:26:52;;;;;;;19.88;6.68;;;;;;;;;;5123415;27;20042;-68
2022/01/02 03:29:18;;;;;;;14.07;5.60;;;;;;;;;;5120635;27;20092;-68
2022/01/02 03:31:44;;;;;;;16.10;5.78;;;;;;;;;;5102105;27;20084;-68
2022/01/02 03:34:10;;;;;;;14.65;5.95;;;;;;;;;;5103159;27;20491;-68
2022/01/02 03:36:36;;;;;;;12.40;5.57;;;;;;;;;;5105332;27;20039;-69
2022/01/02 03:39:03;;;;;;;17.17;5.95;;;;;;;;;;5124085;27;20047;-69
2022/01/02 03:41:29;;;;;;;19.25;6.07;;;;;;;;;;5123975;27;20052;-68
2022/01/02 03:43:56;;;;;;;12.02;5.35;;;;;;;;;;5126495;27;20129;-68
2022/01/02 03:46:22;;;;;;;17.98;6.15;;;;;;;;;;5124802;27;20064;-68
2022/01/02 03:48:48;;;;;;;15.43;5.80;;;;;;;;;;5103458;27;20041;-68
2022/01/02 03:51:14;;;;;;;15.15;6.35;;;;;;;;;;5121316;27;20039;-68
2022/01/02 03:53:40;;;;;;;17.08;6.00;;;;;;;;;;5097024;27;20176;-68
2022/01/02 03:56:06;;;;;;;16.38;5.60;;;;;;;;;;5089515;27;20781;-68
2022/01/02 03:58:32;;;;;;;12.07;5.20;;;;;;;;;;5105140;27;20497;-69
2022/01/02 04:00:58;;;;;;;13.32;5.65;;;;;;;;;;5119364;27;20428;-68
2022/01/02 04:03:24;;;;;;;17.27;5.63;;;;;;;;;;5085793;27;20078;-68
2022/01/02 04:05:50;;;;;;;16.02;6.00;;;;;;;;;;5083099;27;20043;-68
2022/01/02 04:08:16;;;;;;;19.15;5.68;;;;;;;;;;5103971;27;20065;-68
2022/01/02 04:10:42;;;;;;;19.90;5.63;;;;;;;;;;5126981;27;20035;-69
2022/01/02 04:13:08;;;;;;;17.27;5.47;;;;;;;;;;5101305;27;20049;-68
2022/01/02 04:15:34;;;;;;;17.20;5.28;;;;;;;;;;5098243;27;20092;-67
2022/01/02 04:18:01;;;;;;;15.27;5.47;;;;;;;;;;5084185;27;20050;-69
2022/01/02 04:20:27;;;;;;;12.48;5.03;;;;;;;;;;5104226;27;20046;-68
2022/01/02 04:22:53;;;;;;;12.90;5.05;;;;;;;;;;5102542;27;20091;-68
2022/01/02 04:25:19;;;;;;;16.10;5.40;;;;;;;;;;5102078;27;20043;-68
2022/01/02 04:27:45;;;;;;;15.73;5.43;;;;;;;;;;5124028;27;20421;-68
2022/01/02 04:30:12;;;;;;;19.50;5.85;;;;;;;;;;5116930;27;20386;-68
2022/01/02 04:32:39;;;;;;;14.80;5.00;;;;;;;;;;5120809;27;20081;-68
2022/01/02 04:35:05;;;;;;;15.32;4.45;;;;;;;;;;5099957;27;20053;-68
2022/01/02 04:37:31;;;;;;;11.85;4.40;;;;;;;;;;5085295;27;20034;-68
2022/01/02 04:39:57;;;;;;;15.05;4.90;;;;;;;;;;5117436;27;20052;-69
2022/01/02 04:42:24;;;;;;;10.75;4.20;;;;;;;;;;5098624;27;20130;-68
2022/01/02 04:44:50;;;;;;;13.48;4.78;;;;;;;;;;5123221;27;20039;-69
2022/01/02 04:47:16;;;;;;;15.45;4.22;;;;;;;;;;5117612;27;20042;-68
2022/01/02 04:49:42;;;;;;;10.27;4.20;;;;;;;;;;5101898;28;20039;-68
2022/01/02 04:52:08;;;;;;;13.27;4.40;;;;;;;;;;5121113;28;21227;-68
2022/01/02 04:54:34;;;;;;;14.82;3.85;;;;;;;;;;5124731;28;20089;-68
2022/01/02 04:57:00;;;;;;;15.65;4.18;;;;;;;;;;5119817;28;20027;-68
2022/01/02 04:59:26;;;;;;;12.07;3.80;;;;;;;;;;5121283;28;20070;-68
2022/01/02 05:01:52;;;;;;;17.20;4.30;;;;;;;;;;5121339;27;20039;-68
2022/01/02 05:04:18;;;;;;;14.18;3.75;;;;;;;;;;5117885;27;21529;-68
2022/01/02 05:06:44;;;;;;;14.35;4.00;;;;;;;;;;5122847;27;20070;-68
2022/01/02 05:09:10;;;;;;;11.05;3.95;;;;;;;;;;5118834;27;20040;-69
2022/01/02 05:11:36;;;;;;;12.95;3.90;;;;;;;;;;5104285;27;20039;-68
2022/01/02 05:14:02;;;;;;;13.43;4.07;;;;;;;;;;5126159;27;20035;-68
2022/01/02 05:16:28;;;;;;;12.98;4.15;;;;;;;;;;5125688;27;20509;-68
2022/01/02 05:18:54;;;;;;;13.68;3.97;;;;;;;;;;5101809;27;20051;-68
2022/01/02 05:21:20;;;;;;;18.33;4.07;;;;;;;;;;5123251;27;20035;-68
2022/01/02 05:23:47;;;;;;;14.00;4.13;;;;;;;;;;5125401;27;20201;-68
2022/01/02 05:26:13;;;;;;;12.23;3.70;;;;;;;;;;5106052;27;20043;-68
2022/01/02 05:28:39;;;;;;;13.10;3.95;;;;;;;;;;5090742;27;20124;-68
2022/01/02 05:31:05;;;;;;;11.35;3.78;;;;;;;;;;5127407;27;20073;-68
2022/01/02 05:33:31;;;;;;;14.85;4.55;;;;;;;;;;5104153;27;20035;-69
2022/01/02 05:35:57;;;;;;;11.75;3.33;;;;;;;;;;5107888;27;20042;-69
2022/01/02 05:38:23;;;;;;;12.43;3.72;;;;;;;;;;5111111;27;20035;-68
2022/01/02 05:40:51;;;;;;;12.52;4.13;;;;;;;;;;5103878;27;20547;-68
2022/01/02 05:43:17;;;;;;;13.23;3.53;;;;;;;;;;5122434;27;21466;-69
2022/01/02 05:45:43;;;;;;;13.57;3.25;;;;;;;;;;5102495;27;20559;-68
2022/01/02 05:48:09;;;;;;;12.07;3.33;;;;;;;;;;5125712;27;20078;-68
2022/01/02 05:50:36;;;;;;;12.10;3.05;;;;;;;;;;5104083;27;20100;-68
2022/01/02 05:53:02;;;;;;;11.18;3.10;;;;;;;;;;5123518;27;20038;-68
2022/01/02 05:55:28;;;;;;;9.38;3.10;;;;;;;;;;5087883;27;20458;-68
2022/01/02 05:57:54;;;;;;;11.55;3.20;;;;;;;;;;5107898;27;20504;-68
2022/01/02 06:00:20;;;;;;;9.95;3.33;;;;;;;;;;5107107;27;20487;-68
2022/01/02 06:02:46;;;;;;;13.23;3.17;;;;;;;;;;5127852;27;20667;-68
2022/01/02 06:05:12;;;;;;;18.02;4.32;;;;;;;;;;5085678;28;20337;-68
2022/01/02 06:07:38;;;;;;;15.35;3.67;;;;;;;;;;5121905;27;20054;-68
2022/01/02 06:10:05;;;;;;;12.95;3.25;;;;;;;;;;5125375;27;20066;-68
2022/01/02 06:12:31;;;;;;;9.93;3.58;;;;;;;;;;5106307;27;20028;-69
2022/01/02 06:14:57;;;;;;;13.93;3.30;;;;;;;;;;5122925;27;20049;-69
2022/01/02 06:17:24;;;;;;;9.43;3.45;;;;;;;;;;5106737;27;20058;-69
2022/01/02 06:19:50;;;;;;;8.20;3.08;;;;;;;;;;5120216;27;20032;-69
2022/01/02 06:22:16;;;;;;;12.05;3.20;;;;;;;;;;5100447;27;20046;-69
2022/01/02 06:24:42;;;;;;;10.02;3.22;;;;;;;;;;5109353;27;20394;-69
2022/01/02 06:27:08;;;;;;;6.80;2.80;;;;;;;;;;5120185;27;21036;-69
2022/01/02 06:29:34;;;;;;;8.40;3.25;;;;;;;;;;5103708;27;20482;-70
2022/01/02 06:32:00;;;;;;;12.23;3.58;;;;;;;;;;5098737;28;20039;-69
2022/01/02 06:34:26;;;;;;;8.40;3.13;;;;;;;;;;5125612;27;20047;-69
2022/01/02 06:36:52;;;;;;;10.70;3.08;;;;;;;;;;5121992;27;20042;-69
2022/01/02 06:39:18;;;;;;;10.10;3.60;;;;;;;;;;5096921;28;20097;-69
2022/01/02 06:41:45;;;;;;;8.82;3.13;;;;;;;;;;5101293;28;20074;-69
2022/01/02 06:44:11;;;;;;;11.45;3.78;;;;;;;;;;5123355;27;20047;-69
2022/01/02 06:46:39;;;;;;;9.23;3.25;;;;;;;;;;5102362;28;20036;-69
2022/01/02 06:49:06;;;;;;;12.32;3.60;;;;;;;;;;5097255;28;20040;-69
2022/01/02 06:51:32;;;;;;;10.05;3.00;;;;;;;;;;5097226;28;20048;-69
2022/01/02 06:53:58;;;;;;;10.75;3.60;;;;;;;;;;5101566;28;20093;-69
2022/01/02 06:56:24;;;;;;;9.68;3.33;;;;;;;;;;5099737;28;20032;-69
2022/01/02 06:58:50;;;;;;;8.40;3.28;;;;;;;;;;5100715;28;20377;-69
2022/01/02 07:01:16;;;;;;;10.32;3.55;;;;;;;;;;5097115;28;20601;-69
2022/01/02 07:03:42;;;;;;;11.00;3.63;;;;;;;;;;5096183;28;20472;-69
2022/01/02 07:06:08;;;;;;;8.80;3.58;;;;;;;;;;5099365;28;20041;-69
2022/01/02 07:08:34;;;;;;;7.55;3.40;;;;;;;;;;5097462;28;20036;-69
2022/01/02 07:11:00;;;;;;;11.18;4.55;;;;;;;;;;5099696;28;20086;-69
2022/01/02 07:13:26;;;;;;;8.23;3.50;;;;;;;;;;5097547;28;20552;-69
2022/01/02 07:15:52;;;;;;;9.85;3.85;;;;;;;;;;5096834;28;20075;-71
2022/01/02 07:18:18;;;;;;;8.30;3.60;;;;;;;;;;5102376;28;20130;-71
2022/01/02 07:20:44;;;;;;;8.18;3.67;;;;;;;;;;5104882;28;20040;-72
2022/01/02 07:23:10;;;;;;;9.63;3.80;;;;;;;;;;5105224;28;20044;-71
2022/01/02 07:25:36;;;;;;;11.07;3.80;;;;;;;;;;5103501;28;20126;-72
2022/01/02 07:28:02;;;;;;;11.88;3.78;;;;;;;;;;5105059;28;20047;-71
2022/01/02 07:30:29;;;;;;;10.82;4.30;;;;;;;;;;5104512;28;20487;-72
2022/01/02 07:33:01;;;;;;;10.93;3.88;;;;;;;;;;5104800;28;20032;-72
2022/01/02 07:35:28;;;;;;;9.45;4.03;;;;;;;;;;5104029;28;20036;-72
2022/01/02 07:37:54;;;;;;;13.38;4.13;;;;;;;;;;5097005;28;20028;-72
2022/01/02 07:40:20;;;;;;;7.22;3.50;;;;;;;;;;5094438;28;20050;-72
2022/01/02 07:42:46;;;;;;;11.20;3.65;;;;;;;;;;5105207;28;20040;-72
2022/01/02 07:45:12;;;;;;;9.82;3.60;;;;;;;;;;5104016;28;20498;-73
2022/01/02 07:47:39;;;;;;;9.80;4.07;;;;;;;;;;5099448;28;20399;-73
2022/01/02 07:50:05;;;;;;;11.82;4.53;;;;;;;;;;5095020;28;20031;-73
2022/01/02 07:52:31;;;;;;;11.70;4.32;;;;;;;;;;5101610;28;20124;-72
2022/01/02 07:54:57;;;;;;;8.95;4.10;;;;;;;;;;5100132;28;20157;-73
2022/01/02 07:57:23;;;;;;;10.30;4.20;;;;;;;;;;5101110;28;20044;-73
2022/01/02 07:59:49;;;;;;;10.68;4.22;;;;;;;;;;5097215;28;20035;-73
2022/01/02 08:02:16;;;;;;;12.05;4.28;;;;;;;;;;5097193;28;20043;-72
2022/01/02 08:04:42;;;;;;;9.27;3.90;;;;;;;;;;5099995;28;20088;-73
2022/01/02 08:07:08;;;;;;;9.93;4.05;;;;;;;;;;5098602;28;20078;-72
2022/01/02 08:09:34;;;;;;;7.68;3.95;;;;;;;;;;5085515;28;20371;-72
2022/01/02 08:12:00;;;;;;;11.88;3.90;;;;;;;;;;5093645;28;20512;-72
2022/01/02 08:14:26;;;;;;;9.07;4.05;;;;;;;;;;5102013;28;20498;-72
2022/01/02 08:16:53;;;;;;;12.20;4.10;;;;;;;;;;5097647;28;20105;-72
2022/01/02 08:19:19;;;;;;;11.00;3.67;;;;;;;;;;5096762;28;20479;-72
2022/01/02 08:21:45;;;;;;;10.45;4.25;;;;;;;;;;5099742;28;20087;-73
2022/01/02 08:24:11;;;;;;;7.47;3.78;;;;;;;;;;5100594;28;20043;-73
2022/01/02 08:26:37;;;;;;;10.95;4.82;;;;;;;;;;5086342;28;20047;-73
2022/01/02 08:29:03;;;;;;;7.55;4.10;;;;;;;;;;5099927;28;20048;-73
2022/01/02 08:31:30;;;;;;;11.88;4.45;;;;;;;;;;5100491;28;20109;-74
2022/01/02 08:33:56;;;;;;;10.85;4.15;;;;;;;;;;5101948;28;20046;-72
2022/01/02 08:36:22;;;;;;;8.70;4.28;;;;;;;;;;5101068;28;20134;-72
2022/01/02 08:38:48;;;;;;;10.82;3.70;;;;;;;;;;5101497;28;20375;-73
2022/01/02 08:41:15;;;;;;;11.43;3.63;;;;;;;;;;5101406;28;20068;-73
2022/01/02 08:43:42;;;;;;;11.98;4.43;;;;;;;;;;5103750;27;20384;-72
2022/01/02 08:46:08;;;;;;;8.38;3.55;;;;;;;;;;5106581;27;20050;-72
2022/01/02 08:48:34;;;;;;;8.30;3.47;;;;;;;;;;5104020;27;20474;-72
2022/01/02 08:51:00;;;;;;;8.15;3.17;;;;;;;;;;5099154;28;20040;-72
2022/01/02 08:53:27;;;;;;;11.32;3.95;;;;;;;;;;5087632;28;20062;-72
2022/01/02 08:55:53;;;;;;;7.60;3.60;;;;;;;;;;5099698;28;20036;-72
2022/01/02 08:58:20;;;;;;;11.55;4.57;;;;;;;;;;5104097;28;20047;-72
2022/01/02 09:00:46;;;;;;;9.85;4.05;;;;;;;;;;5102178;28;20051;-72
2022/01/02 09:03:12;;;;;;;7.70;3.65;;;;;;;;;;5101649;28;20035;-72
2022/01/02 09:05:38;;;;;;;10.52;3.60;;;;;;;;;;5100162;28;20677;-71
2022/01/02 09:08:04;;;;;;;6.38;3.33;;;;;;;;;;5123963;28;20534;-72
2022/01/02 09:10:30;;;;;;;7.20;2.95;;;;;;;;;;5101303;28;20058;-72
2022/01/02 09:12:56;;;;;;;9.15;3.65;;;;;;;;;;5102190;28;20054;-72
2022/01/02 09:15:23;;;;;;;8.00;3.38;;;;;;;;;;5102332;28;20076;-71
2022/01/02 09:17:49;;;;;;;8.63;3.70;;;;;;;;;;5093423;28;20027;-71
2022/01/02 09:20:17;;;;;;;10.55;3.90;;;;;;;;;;5121753;27;20036;-71
2022/01/02 09:22:43;;;;;;;10.63;3.95;;;;;;;;;;5099164;28;20046;-72
2022/01/02 09:25:10;;;;;;;11.38;4.18;;;;;;;;;;5101811;28;20498;-72
2022/01/02 09:27:37;;;;;;;8.10;3.50;;;;;;;;;;5086752;28;20063;-71
2022/01/02 09:30:04;;;;;;;8.25;3.53;;;;;;;;;;5102225;28;20031;-71
2022/01/02 09:32:32;;;;;;;12.05;3.95;;;;;;;;;;5103469;28;20044;-71
2022/01/02 09:34:58;;;;;;;9.30;3.55;;;;;;;;;;5102190;28;20465;-71
2022/01/02 09:37:24;;;;;;;9.25;4.20;;;;;;;;;;5104889;28;20456;-71
2022/01/02 09:39:50;;;;;;;7.43;3.42;;;;;;;;;;5102511;28;20065;-71
2022/01/02 09:42:17;;;;;;;9.50;4.00;;;;;;;;;;5124298;27;20047;-71
2022/01/02 09:44:43;;;;;;;8.18;4.00;;;;;;;;;;5101916;28;20031;-71
2022/01/02 09:47:10;;;;;;;11.45;4.07;;;;;;;;;;5102139;28;20035;-71
2022/01/02 09:49:38;;;;;;;13.75;4.28;;;;;;;;;;5104503;27;20038;-71
2022/01/02 09:52:04;;;;;;;10.35;4.10;;;;;;;;;;5107809;27;20071;-71
2022/01/02 09:54:32;;;;;;;11.43;4.43;;;;;;;;;;5108432;27;20084;-71
2022/01/02 09:56:58;;;;;;;9.73;4.47;;;;;;;;;;5104470;27;20047;-71
2022/01/02 09:59:24;;;;;;;10.32;4.40;;;;;;;;;;5108100;27;20459;-71
2022/01/02 10:01:50;;;;;;;9.02;3.92;;;;;;;;;;5099065;28;20529;-71
2022/01/02 10:04:32;;;;;;;8.43;3.63;;;;;;;;;;5125644;27;20088;-71
2022/01/02 10:06:58;;;;;;;6.50;4.05;;;;;;;;;;5106257;27;20051;-71
2022/01/02 10:09:31;;;;;;;11.75;4.18;;;;;;;;;;5106206;27;20130;-71
2022/01/02 10:12:16;;;;;;;8.35;4.18;;;;;;;;;;5088013;27;20042;-71
2022/01/02 10:14:42;;;;;;;10.48;4.05;;;;;;;;;;5105889;27;20096;-71
2022/01/02 10:17:08;;;;;;;11.00;4.10;;;;;;;;;;5103804;27;20092;-71
2022/01/02 10:19:38;;;;;;;9.68;3.65;;;;;;;;;;5105447;27;20036;-71
2022/01/02 10:22:06;;;;;;;8.50;3.40;;;;;;;;;;5083911;27;20071;-71
2022/01/02 10:24:37;;;;;;;10.50;4.30;;;;;;;;;;5092886;27;20054;-70
2022/01/02 10:27:06;;;;;;;10.45;4.10;;;;;;;;;;5101967;27;20078;-71
2022/01/02 10:29:58;;;;;;;10.85;3.90;;;;;;;;;;5094781;27;20495;-70
2022/01/02 10:32:24;;;;;;;11.13;4.13;;;;;;;;;;5096835;27;20054;-71
2022/01/02 10:34:52;;;;;;;8.30;4.20;;;;;;;;;;5098928;28;20044;-70
2022/01/02 10:37:24;;;;;;;10.18;4.13;;;;;;;;;;5103280;27;20044;-71
2022/01/02 10:39:50;;;;;;;9.35;3.90;;;;;;;;;;5102759;27;20134;-71
2022/01/02 10:42:17;;;;;;;7.43;4.15;;;;;;;;;;5106644;27;20491;-71
2022/01/02 10:44:43;;;;;;;10.93;4.30;;;;;;;;;;5106110;27;20043;-71
2022/01/02 10:47:15;;;;;;;9.40;4.65;;;;;;;;;;5100177;27;20041;-70
2022/01/02 10:50:04;;;;;;;11.75;3.92;;;;;;;;;;5125528;27;20690;-71
2022/01/02 10:52:47;;;;;;;8.65;4.40;;;;;;;;;;5094804;27;20058;-71
2022/01/02 10:55:13;;;;;;;8.02;4.28;;;;;;;;;;5102756;27;20077;-70
2022/01/02 10:57:42;;;;;;;13.85;4.93;;;;;;;;;;5105397;27;20035;-71
2022/01/02 11:00:09;;;;;;;10.15;4.85;;;;;;;;;;5100633;27;20066;-71
2022/01/02 11:02:35;;;;;;;10.00;4.63;;;;;;;;;;5107683;27;20035;-71
2022/01/02 11:05:10;;;;;;;10.40;4.57;;;;;;;;;;5103573;27;20491;-71
2022/01/02 11:07:40;;;;;;;10.23;4.53;;;;;;;;;;5109786;27;20043;-71
2022/01/02 11:10:07;;;;;;;8.00;4.53;;;;;;;;;;5104094;27;20537;-71
2022/01/02 11:12:33;;;;;;;13.82;5.65;;;;;;;;;;5108373;27;20043;-71
2022/01/02 11:15:00;;;;;;;9.75;4.50;;;;;;;;;;5103936;27;20053;-70
2022/01/02 11:17:26;;;;;;;12.77;5.28;;;;;;;;;;5108433;27;20031;-70
2022/01/02 11:19:52;;;;;;;12.07;4.82;;;;;;;;;;5105703;27;20043;-71
2022/01/02 11:22:29;;;;;;;13.57;4.68;;;;;;;;;;5105279;27;20529;-71
2022/01/02 11:25:08;;;;;;;12.35;5.03;;;;;;;;;;5106922;27;20039;-70
2022/01/02 11:27:43;;;;;;;10.07;4.25;;;;;;;;;;5102108;27;20061;-70
2022/01/02 11:30:28;;;;;;;11.60;4.38;;;;;;;;;;5107095;27;20553;-70
2022/01/02 11:33:05;;;;;;;10.88;4.63;;;;;;;;;;5103271;27;20087;-71
2022/01/02 11:35:31;;;;;;;11.13;4.53;;;;;;;;;;5105956;27;20042;-72
2022/01/02 11:38:02;;;;;;;11.02;4.30;;;;;;;;;;5100395;27;20067;-71
2022/01/02 11:40:47;;;;;;;11.40;4.13;;;;;;;;;;5087625;27;20434;-71
2022/01/02 11:43:33;;;;;;;9.68;4.38;;;;;;;;;;5106741;27;20138;-71
2022/01/02 11:46:16;;;;;;;14.23;4.28;;;;;;;;;;5085775;27;20055;-71
2022/01/02 11:48:42;;;;;;;9.82;3.60;;;;;;;;;;5123127;27;20055;-71
2022/01/02 11:51:08;;;;;;;12.27;4.18;;;;;;;;;;5101890;27;20158;-71
2022/01/02 11:53:35;;;;;;;8.68;3.95;;;;;;;;;;5101309;27;20182;-71
2022/01/02 11:56:02;;;;;;;13.55;3.78;;;;;;;;;;5100005;27;20039;-71
2022/01/02 11:58:46;;;;;;;12.05;3.90;;;;;;;;;;5101380;28;21282;-70
2022/01/02 12:01:32;;;;;;;11.70;4.00;;;;;;;;;;5101796;27;20103;-70
2022/01/02 12:03:58;;;;;;;11.02;3.55;;;;;;;;;;5100981;27;20055;-71
2022/01/02 12:06:32;;;;;;;8.07;3.63;;;;;;;;;;5103699;27;20129;-71
2022/01/02 12:08:58;;;;;;;12.95;3.75;;;;;;;;;;5102741;27;20521;-71
2022/01/02 12:11:40;;;;;;;8.82;3.40;;;;;;;;;;5096722;28;20039;-71
2022/01/02 12:14:08;;;;;;;10.50;3.90;;;;;;;;;;5125711;27;20518;-71
2022/01/02 12:16:42;;;;;;;12.52;4.13;;;;;;;;;;5085153;27;20479;-71
2022/01/02 12:19:08;;;;;;;9.48;2.97;;;;;;;;;;5105024;27;20087;-71
2022/01/02 12:21:35;;;;;;;9.18;3.10;;;;;;;;;;5088772;27;20126;-70
2022/01/02 12:24:02;;;;;;;10.35;3.30;;;;;;;;;;5104897;27;20046;-70
2022/01/02 12:26:30;;;;;;;10.93;2.80;;;;;;;;;;5100831;27;20039;-70
2022/01/02 12:28:58;;;;;;;14.23;2.97;;;;;;;;;;5104223;27;20108;-70
2022/01/02 12:31:28;;;;;;;12.65;2.90;;;;;;;;;;5098447;27;20118;-71
2022/01/02 12:33:58;;;;;;;13.02;2.72;;;;;;;;;;5096944;27;20050;-71
2022/01/02 12:36:24;;;;;;;11.18;2.22;;;;;;;;;;5101175;27;20522;-71
2022/01/02 12:38:50;;;;;;;10.38;2.60;;;;;;;;;;5119031;27;20498;-70
2022/01/02 12:41:17;;;;;;;7.32;2.03;;;;;;;;;;5099033;27;20058;-70
2022/01/02 12:43:56;;;;;;;15.73;2.97;;;;;;;;;;5099400;28;20054;-70
2022/01/02 12:46:42;;;;;;;10.38;2.70;;;;;;;;;;5094522;27;20039;-70
2022/01/02 12:49:14;;;;;;;10.95;2.70;;;;;;;;;;5124230;27;20054;-70
2022/01/02 12:51:45;;;;;;;14.88;2.85;;;;;;;;;;5106697;28;20072;-71
2022/01/02 12:54:13;;;;;;;11.35;2.95;;;;;;;;;;5104211;28;20031;-70
2022/01/02 12:56:43;;;;;;;11.13;2.75;;;;;;;;;;5090868;28;20074;-70
2022/01/02 12:59:15;;;;;;;15.10;3.08;;;;;;;;;;5105505;28;20031;-71
2022/01/02 13:01:51;;;;;;;12.57;2.67;;;;;;;;;;5104400;28;20150;-71
2022/01/02 13:04:17;;;;;;;11.40;2.58;;;;;;;;;;5105810;28;20051;-71
2022/01/02 13:06:53;;;;;;;14.55;2.83;;;;;;;;;;5102937;28;20047;-71
2022/01/02 13:09:23;;;;;;;12.60;3.05;;;;;;;;;;5104431;28;20053;-71
2022/01/02 13:11:50;;;;;;;12.85;2.97;;;;;;;;;;5101858;28;20415;-70
2022/01/02 13:14:29;;;;;;;13.75;2.63;;;;;;;;;;5107701;28;20416;-71
2022/01/02 13:16:55;;;;;;;16.75;2.97;;;;;;;;;;5087659;28;20357;-70
2022/01/02 13:19:21;;;;;;;9.82;2.75;;;;;;;;;;5106262;28;20490;-70
2022/01/02 13:21:47;;;;;;;14.45;3.05;;;;;;;;;;5104956;28;20678;-71
2022/01/02 13:24:26;;;;;;;16.00;2.75;;;;;;;;;;5088457;27;20039;-70
2022/01/02 13:26:53;;;;;;;12.85;2.78;;;;;;;;;;5127039;27;21790;-70
2022/01/02 13:29:28;;;;;;;14.35;2.50;;;;;;;;;;5093915;27;20035;-70
2022/01/02 13:31:55;;;;;;;14.40;3.63;;;;;;;;;;5109952;27;20429;-70
2022/01/02 13:34:24;;;;;;;12.27;3.22;;;;;;;;;;5111398;27;20061;-70
2022/01/02 13:37:02;;;;;;;15.77;3.42;;;;;;;;;;5127019;27;20138;-70
2022/01/02 13:39:38;;;;;;;20.73;3.35;;;;;;;;;;5107252;27;20070;-70
2022/01/02 13:42:04;;;;;;;13.00;3.17;;;;;;;;;;5127356;27;20035;-70
2022/01/02 13:44:37;;;;;;;17.73;3.42;;;;;;;;;;5092849;27;20044;-70
2022/01/02 13:47:03;;;;;;;17.38;3.47;;;;;;;;;;5109019;27;20047;-70
2022/01/02 13:49:39;;;;;;;13.63;3.25;;;;;;;;;;5110830;27;20374;-70
2022/01/02 13:52:05;;;;;;;;;;;;;;;;;;5109872;27;20055;-70
2022/01/02 13:54:31;;;;;;;14.38;3.15;;;;;;;;;;5103104;27;19923;-70
2022/01/02 13:56:58;;;;;;;19.52;3.85;;;;;;;;;;5103331;27;20053;-70
2022/01/02 13:59:25;;;;;;;16.60;3.65;;;;;;;;;;5102551;27;20035;-70
2022/01/02 14:01:51;;;;;;;14.32;2.83;;;;;;;;;;5102246;27;20046;-70
2022/01/02 14:04:19;;;;;;;12.25;2.70;;;;;;;;;;5103287;27;20055;-70
2022/01/02 14:06:46;;;;;;;16.00;3.88;;;;;;;;;;5102548;27;20042;-70
2022/01/02 14:09:16;;;;;;;19.05;2.90;;;;;;;;;;5106162;27;20546;-70
2022/01/02 14:11:45;;;;;;;12.82;3.30;;;;;;;;;;5105342;27;20064;-70
2022/01/02 14:14:21;;;;;;;24.25;4.18;;;;;;;;;;5102455;27;20043;-70
2022/01/02 14:17:13;;;;;;;15.88;3.20;;;;;;;;;;5109536;27;20050;-70
2022/01/02 14:19:40;;;;;;;14.73;2.92;;;;;;;;;;5128131;27;20058;-70
2022/01/02 14:22:07;;;;;;;17.00;3.20;;;;;;;;;;5089657;27;20052;-70
2022/01/02 14:24:33;;;;;;;15.60;3.72;;;;;;;;;;5103394;27;20599;-69
2022/01/02 14:27:00;;;;;;;16.65;3.25;;;;;;;;;;5106589;27;20049;-68
2022/01/02 14:29:26;;;;;;;19.50;3.92;;;;;;;;;;5106850;27;20061;-69
2022/01/02 14:31:53;;;;;;;16.48;3.40;;;;;;;;;;5090943;27;20039;-69
2022/01/02 14:34:19;;;;;;;19.13;3.72;;;;;;;;;;5102187;28;20088;-69
2022/01/02 14:36:45;;;;;;;11.05;3.15;;;;;;;;;;5103777;27;20095;-69
2022/01/02 14:39:11;;;;;;;21.42;3.78;;;;;;;;;;5107781;27;20047;-68
2022/01/02 14:41:38;;;;;;;12.20;3.08;;;;;;;;;;5106471;27;20579;-69
2022/01/02 14:44:05;;;;;;;15.60;3.35;;;;;;;;;;5109170;27;20043;-69
2022/01/02 14:46:31;;;;;;;16.13;2.83;;;;;;;;;;5124232;27;20043;-69
2022/01/02 14:48:57;;;;;;;13.82;2.67;;;;;;;;;;5107473;27;20252;-69